Tri Cities Regional Tn Va Airport
KTRI : now visible

Airfield :











YOU CAN JOIN US ON...

 
LOGIN :

Register | Disclaimer

   EN    FR    IT 

 









Legend :    VFR   Marginal VFR   IFR   Intensive IFR   Very Intensive IFR
Visi :
Ceiling :
>= 8 km
>= 3000ft
5 to 8 km
1000 to 3000 ft
1500m to 5 km
500 to 1000 ft
800 to 1500m
200 to 500 ft
< 800m
< 200 ft
Symbols :   Thunderstorms  Fog  Heavy snow  Heavy precipitations  Wind > 20 kt






- Airport Elevation : 1519 ft
- IATA code : TRI


KTRI - Tri Cities Regional Tn Va

CURRENT METAR :
  • 080653Z 00000KT 10SM CLR M01/M02 A3030 RMK AO2 SLP254 T10061017

EXPIRED METARs :
  • 080553Z 00000KT 10SM CLR 00/M02 A3029 RMK AO2 SLP250 T00001017 10067 20000 58002
  • 080453Z 03003KT 10SM CLR 01/M01 A3030 RMK AO2 SLP253 T00111006 401330006

TAF KTRI
Valid from the 08 at 06:00 until the 09 at 06:00 UTC


080526Z 0806/0906 VRB03KT P6SM SCT200
FM081500 15005KT P6SM SCT060 BKN250
FM090000 VRB03KT P6SM BKN070



MET'MAP, your aeronautical weather chart ! - Copyright ORBIFLY December 2007 - Disclaimer

ORBIFLY MET'MAP TEAM :

Programming & Development : Alexandra Zaïnal
Concept & original design : Baudouin d'Aumeries
Assistance for programming : Marc-Olivier Méhu
Technical & hardware support : Manuel Goepfert

Contact : metmap@orbifly.com




SOURCES & CREDITS :

   NOAA       Earth
Advisory